createdAt,value
2023-04-18T00:00:51.430Z,100.00
2023-04-18T00:05:54.332Z,100.00
2023-04-18T00:10:57.236Z,100.00
2023-04-18T00:16:00.145Z,100.00
2023-04-18T00:21:03.875Z,100.00
2023-04-18T00:26:06.763Z,100.00
2023-04-18T00:31:09.704Z,100.00
2023-04-18T00:36:12.672Z,100.00
2023-04-18T00:41:16.766Z,100.00
2023-04-18T00:46:19.784Z,100.00
2023-04-18T00:51:22.934Z,100.00
2023-04-18T00:56:26.129Z,100.00
2023-04-18T01:01:29.380Z,100.00
2023-04-18T01:06:32.965Z,100.00
2023-04-18T01:11:36.277Z,100.00
2023-04-18T01:16:39.195Z,100.00
2023-04-18T01:21:44.070Z,100.00
2023-04-18T01:26:50.116Z,100.00
2023-04-18T01:31:54.045Z,100.00
2023-04-18T01:36:57.083Z,100.00
2023-04-18T01:42:02.281Z,100.00
2023-04-18T01:47:05.624Z,100.00
2023-04-18T01:52:08.837Z,100.00
2023-04-18T01:57:11.732Z,100.00
2023-04-18T02:02:14.806Z,100.00
2023-04-18T02:07:17.758Z,100.00
2023-04-18T02:12:21.161Z,100.00
2023-04-18T02:17:24.294Z,100.00
2023-04-18T02:22:27.383Z,100.00
2023-04-18T02:27:30.448Z,100.00
2023-04-18T02:32:33.424Z,100.00
2023-04-18T02:37:36.512Z,100.00
2023-04-18T02:42:40.061Z,100.00
2023-04-18T02:47:54.669Z,100.00
2023-04-18T02:52:58.733Z,100.00
2023-04-18T02:58:01.660Z,100.00
2023-04-18T03:03:05.857Z,100.00
2023-04-18T03:08:08.896Z,100.00
2023-04-18T03:13:11.733Z,100.00
2023-04-18T03:18:14.901Z,100.00
2023-04-18T03:23:17.799Z,100.00
2023-04-18T03:28:20.800Z,100.00
2023-04-18T03:33:24.220Z,100.00
2023-04-18T03:38:27.224Z,100.00
2023-04-18T03:43:30.125Z,100.00
2023-04-18T03:48:36.437Z,100.00
2023-04-18T03:53:39.275Z,100.00
2023-04-18T03:58:42.224Z,100.00
2023-04-18T04:03:45.361Z,100.00
2023-04-18T04:08:48.550Z,100.00
2023-04-18T04:13:51.453Z,100.00
2023-04-18T04:18:54.368Z,100.00
2023-04-18T04:23:57.692Z,100.00
2023-04-18T04:29:00.569Z,100.00
2023-04-18T04:34:05.105Z,100.00
2023-04-18T04:39:08.931Z,100.00
2023-04-18T04:44:12.502Z,100.00
2023-04-18T04:49:15.659Z,100.00
2023-04-18T04:54:18.568Z,100.00
2023-04-18T04:59:21.474Z,100.00
2023-04-18T05:04:25.625Z,100.00
2023-04-18T05:09:28.913Z,100.00
2023-04-18T05:14:31.823Z,100.00
2023-04-18T05:19:35.405Z,100.00
2023-04-18T05:24:38.451Z,99.09
2023-04-18T05:29:41.567Z,98.46
2023-04-18T05:34:44.662Z,97.82
2023-04-18T05:39:47.568Z,96.65
2023-04-18T05:44:50.732Z,95.56
2023-04-18T05:49:53.896Z,94.76
2023-04-18T05:54:56.810Z,93.83
2023-04-18T06:00:00.244Z,92.27
2023-04-18T06:05:03.674Z,89.96
2023-04-18T06:10:11.202Z,88.66
2023-04-18T06:15:14.053Z,86.97
2023-04-18T06:20:17.059Z,84.60
2023-04-18T06:25:20.914Z,82.03
2023-04-18T06:30:23.785Z,79.53
2023-04-18T06:35:26.829Z,77.90
2023-04-18T06:40:30.096Z,75.24
2023-04-18T06:45:33.352Z,69.37
2023-04-18T06:50:36.418Z,61.64
2023-04-18T06:55:40.960Z,55.94
2023-04-18T07:00:43.932Z,49.23
2023-04-18T07:05:47.083Z,45.69
2023-04-18T07:10:50.005Z,42.16
2023-04-18T07:15:52.984Z,39.71
2023-04-18T07:20:55.904Z,36.53
2023-04-18T07:26:01.750Z,34.97
2023-04-18T07:31:05.009Z,32.98
2023-04-18T07:36:08.435Z,32.49
2023-04-18T07:41:11.720Z,31.39
2023-04-18T07:46:14.757Z,30.72
2023-04-18T07:51:17.737Z,28.62
2023-04-18T07:56:20.577Z,27.89
2023-04-18T08:01:25.000Z,26.86
2023-04-18T08:06:29.065Z,24.83
2023-04-18T08:11:34.487Z,23.78
2023-04-18T08:16:37.902Z,22.71
2023-04-18T08:21:40.776Z,22.24
2023-04-18T08:26:43.682Z,21.97
2023-04-18T08:31:46.741Z,21.12
2023-04-18T08:36:51.332Z,22.25
2023-04-18T08:41:59.635Z,23.57
2023-04-18T08:47:03.180Z,23.81
2023-04-18T08:52:14.590Z,22.52
2023-04-18T08:57:23.873Z,21.12
2023-04-18T09:02:45.211Z,20.80
2023-04-18T09:07:50.012Z,20.05
2023-04-18T09:12:53.768Z,18.61
2023-04-18T09:17:59.597Z,18.52
2023-04-18T09:23:04.429Z,18.17
2023-04-18T09:28:30.043Z,17.65
2023-04-18T09:33:33.127Z,17.56
2023-04-18T09:38:41.294Z,17.30
2023-04-18T09:43:47.533Z,17.71
2023-04-18T09:48:50.444Z,18.07
2023-04-18T09:53:53.859Z,17.80
2023-04-18T09:59:07.408Z,16.55
2023-04-18T10:04:12.528Z,16.02
2023-04-18T10:09:16.587Z,15.39
2023-04-18T10:14:20.315Z,15.09
2023-04-18T10:19:24.881Z,14.19
2023-04-18T10:24:56.389Z,13.90
2023-04-18T10:29:59.337Z,13.59
2023-04-18T10:35:02.546Z,13.53
2023-04-18T10:40:07.797Z,13.46
2023-04-18T10:45:20.558Z,13.82
2023-04-18T10:50:23.657Z,15.77
2023-04-18T10:55:30.051Z,18.29
2023-04-18T11:00:33.174Z,20.59
2023-04-18T11:05:36.262Z,22.47
2023-04-18T11:10:39.780Z,23.03
2023-04-18T11:15:42.686Z,20.06
2023-04-18T11:20:50.502Z,17.36
2023-04-18T11:25:56.831Z,15.73
2023-04-18T11:31:03.000Z,15.22
2023-04-18T11:36:07.157Z,15.88
2023-04-18T11:41:14.774Z,18.10
2023-04-18T11:46:17.843Z,17.86
2023-04-18T11:51:38.914Z,19.01
2023-04-18T11:56:48.967Z,23.09
2023-04-18T12:02:15.426Z,25.36
2023-04-18T12:07:32.421Z,26.89
2023-04-18T12:12:36.698Z,27.84
2023-04-18T12:17:39.718Z,28.99
2023-04-18T12:22:45.533Z,27.57
2023-04-18T12:27:49.672Z,27.89
2023-04-18T12:32:57.501Z,29.07
2023-04-18T12:38:01.905Z,30.25
2023-04-18T12:43:04.899Z,30.33
2023-04-18T12:48:08.042Z,32.01
2023-04-18T12:53:10.884Z,32.66
2023-04-18T12:58:18.835Z,32.17
2023-04-18T13:03:22.311Z,33.07
2023-04-18T13:08:25.697Z,31.14
2023-04-18T13:13:28.607Z,26.63
2023-04-18T13:18:31.525Z,26.20
2023-04-18T13:23:34.519Z,28.01
2023-04-18T13:28:37.526Z,30.26
2023-04-18T13:33:40.940Z,32.70
2023-04-18T13:38:43.782Z,34.78
2023-04-18T13:43:46.947Z,36.37
2023-04-18T13:48:50.158Z,37.91
2023-04-18T13:53:52.931Z,39.43
2023-04-18T13:58:56.288Z,40.45
2023-04-18T14:03:59.410Z,42.25
2023-04-18T14:09:02.392Z,45.07
2023-04-18T14:14:06.018Z,46.74
2023-04-18T14:19:09.025Z,47.59
2023-04-18T14:24:12.328Z,48.34
2023-04-18T14:29:15.848Z,48.20
2023-04-18T14:34:18.959Z,46.71
2023-04-18T14:39:22.323Z,46.52
2023-04-18T14:44:25.300Z,47.96
2023-04-18T14:49:28.291Z,48.95
2023-04-18T14:54:32.673Z,49.69
2023-04-18T14:59:35.732Z,50.42
2023-04-18T15:04:38.676Z,50.97
2023-04-18T15:09:41.640Z,50.53
2023-04-18T15:14:44.752Z,51.00
2023-04-18T15:19:47.673Z,51.87
2023-04-18T15:24:50.866Z,52.73
2023-04-18T15:29:53.847Z,53.77
2023-04-18T15:34:56.680Z,55.54
2023-04-18T15:40:00.517Z,56.76
2023-04-18T15:45:04.629Z,57.65
2023-04-18T15:50:09.036Z,58.16
2023-04-18T15:55:15.469Z,58.39
2023-04-18T16:00:19.866Z,59.15
2023-04-18T16:05:22.706Z,59.40
2023-04-18T16:10:25.761Z,59.94
2023-04-18T16:15:31.998Z,60.74
2023-04-18T16:20:34.995Z,61.41
2023-04-18T16:25:38.004Z,62.00
2023-04-18T16:30:43.976Z,62.77
2023-04-18T16:35:46.894Z,63.06
2023-04-18T16:40:49.796Z,63.22
2023-04-18T16:45:56.540Z,63.65
2023-04-18T16:50:59.496Z,64.23
2023-04-18T16:56:03.522Z,64.71
2023-04-18T17:01:08.306Z,65.76
2023-04-18T17:06:11.175Z,66.59
2023-04-18T17:11:14.082Z,67.32
2023-04-18T17:16:18.183Z,68.11
2023-04-18T17:21:21.224Z,68.09
2023-04-18T17:26:25.969Z,68.33
2023-04-18T17:31:29.847Z,68.72
2023-04-18T17:36:32.903Z,69.74
2023-04-18T17:41:38.998Z,70.27
2023-04-18T17:46:42.290Z,71.00
2023-04-18T17:51:45.907Z,71.69
2023-04-18T17:56:50.461Z,72.30
2023-04-18T18:01:53.465Z,72.95
2023-04-18T18:06:57.478Z,74.35
2023-04-18T18:12:00.392Z,74.16
2023-04-18T18:17:03.997Z,74.26
2023-04-18T18:22:07.335Z,74.44
2023-04-18T18:27:10.236Z,75.42
2023-04-18T18:32:13.039Z,75.74
2023-04-18T18:37:15.936Z,76.68
2023-04-18T18:42:18.841Z,77.44
2023-04-18T18:47:21.690Z,77.80
2023-04-18T18:52:25.281Z,78.07
2023-04-18T18:57:28.175Z,77.96
2023-04-18T19:02:31.564Z,77.91
2023-04-18T19:07:34.906Z,77.77
2023-04-18T19:12:38.489Z,77.69
2023-04-18T19:17:41.838Z,77.58
2023-04-18T19:22:44.736Z,77.57
2023-04-18T19:27:47.557Z,77.45
2023-04-18T19:32:50.741Z,76.78
2023-04-18T19:38:01.527Z,76.78
2023-04-18T19:43:04.552Z,77.08
2023-04-18T19:48:07.475Z,76.26
2023-04-18T19:53:11.286Z,75.84
2023-04-18T19:58:34.720Z,75.00
2023-04-18T20:03:38.506Z,72.55
2023-04-18T20:08:42.105Z,70.12
2023-04-18T20:13:45.427Z,69.01
2023-04-18T20:18:49.350Z,69.87
2023-04-18T20:23:52.365Z,72.62
2023-04-18T20:28:55.256Z,74.35
2023-04-18T20:33:58.273Z,75.10
2023-04-18T20:39:02.608Z,75.63
2023-04-18T20:44:06.270Z,75.87
2023-04-18T20:49:09.853Z,76.37
2023-04-18T20:54:13.528Z,76.65
2023-04-18T20:59:16.677Z,77.23
2023-04-18T21:04:20.968Z,77.19
2023-04-18T21:09:24.024Z,77.67
2023-04-18T21:14:26.927Z,77.80
2023-04-18T21:19:29.840Z,77.64
2023-04-18T21:24:32.733Z,77.78
2023-04-18T21:29:36.045Z,77.48
2023-04-18T21:34:38.955Z,77.52
2023-04-18T21:39:42.839Z,77.97
2023-04-18T21:44:45.775Z,78.26
2023-04-18T21:49:49.524Z,78.69
2023-04-18T21:54:53.232Z,78.25
2023-04-18T21:59:57.934Z,78.60
2023-04-18T22:05:00.878Z,78.96
2023-04-18T22:10:05.894Z,79.39
2023-04-18T22:15:08.945Z,80.12
2023-04-18T22:20:12.932Z,80.08
2023-04-18T22:25:15.789Z,80.42
2023-04-18T22:30:18.685Z,80.01
2023-04-18T22:35:22.097Z,79.84
2023-04-18T22:40:25.098Z,79.83
2023-04-18T22:45:28.003Z,80.06
2023-04-18T22:50:30.926Z,80.71
2023-04-18T22:55:34.424Z,81.07
2023-04-18T23:00:38.021Z,81.94
2023-04-18T23:05:41.475Z,82.42
2023-04-18T23:10:44.573Z,82.33
2023-04-18T23:15:47.512Z,82.41
2023-04-18T23:20:50.588Z,82.71
2023-04-18T23:25:53.494Z,83.19
2023-04-18T23:30:56.399Z,83.06
2023-04-18T23:36:00.063Z,83.13
2023-04-18T23:41:03.387Z,83.20
2023-04-18T23:46:06.344Z,82.99
2023-04-18T23:51:09.243Z,83.08
2023-04-18T23:56:12.252Z,83.20
